Pos First Name Last Name YOB Country Start
Num
Time Swim T1 Bike T2 Run
1 Sophie Linn 1995 AUS 9 01:02:31 00:10:11 00:00:00 00:34:33 00:00:00 00:17:47
2 Sarika Nakayama 2000 JPN 11 01:03:13 00:10:15 00:00:00 00:34:28 00:00:00 00:18:30
3 Yurie Kato 1987 JPN 1 01:03:31 00:10:17 00:00:00 00:34:27 00:00:00 00:18:47
4 Emy Legault 1996 CAN 8 01:03:33 00:10:13 00:00:00 00:34:32 00:00:00 00:18:48
5 Konami Ushioda 1997 JPN 3 01:03:56 00:10:50 00:00:00 00:35:09 00:00:00 00:17:57
6 Marissa Ferrante 1991 USA 5 01:04:10 00:10:17 00:00:00 00:35:46 00:00:00 00:18:07
7 Chisato Nakajima 2003 JPN 24 01:04:20 00:10:18 00:00:00 00:35:43 00:00:00 00:18:19
8 Tsudoi Miyazaki 1996 JPN 19 01:04:34 00:10:46 00:00:00 00:35:14 00:00:00 00:18:34
9 Ji Yeon Kim 1990 KOR 7 01:04:45 00:10:35 00:00:00 00:35:25 00:00:00 00:18:45
10 Annie Kelly 1994 USA 40 01:04:46 00:10:54 00:00:00 00:35:10 00:00:00 00:18:42
11 Ellen Pennock 1992 CAN 21 01:04:54 00:10:12 00:00:00 00:35:50 00:00:00 00:18:52
12 Misaki Kago 1996 JPN 2 01:05:04 00:11:00 00:00:00 00:35:02 00:00:00 00:19:02
13 Mary Alex England 1994 USA 6 01:05:06 00:10:23 00:00:00 00:35:36 00:00:00 00:19:07
14 Yuki Sugihara 1998 JPN 16 01:05:13 00:10:57 00:00:00 00:35:04 00:00:00 00:19:12
15 Charlotte Derbyshire 2001 AUS 20 01:05:17 00:10:49 00:00:00 00:35:13 00:00:00 00:19:15
16 Gina Sereno 1995 USA 25 01:05:26 00:11:20 00:00:00 00:36:14 00:00:00 00:17:52
17 Zoe Leahy 1997 AUS 15 01:05:36 00:10:08 00:00:00 00:35:55 00:00:00 00:19:33
18 Naomi Takamine 1986 JPN 10 01:05:44 00:10:55 00:00:00 00:35:08 00:00:00 00:19:41
19 Mako Hiraizumi 2003 JPN 44 01:05:52 00:10:59 00:00:00 00:35:03 00:00:00 00:19:50
20 Ayano Sasaki 1998 JPN 33 01:05:56 00:11:42 00:00:00 00:35:50 00:00:00 00:18:24
21 Shoko Fuchigami 1990 JPN 30 01:06:03 00:10:53 00:00:00 00:35:06 00:00:00 00:20:04
22 Chika Sato 1986 JPN 28 01:06:17 00:10:58 00:00:00 00:35:51 00:00:00 00:19:28
23 Nanami Nakayama 2000 JPN 17 01:06:23 00:10:54 00:00:00 00:35:07 00:00:00 00:20:22
24 Emily Jamgotchian 2000 AUS 29 01:06:43 00:10:51 00:00:00 00:35:10 00:00:00 00:20:42
25 Fumika Matsumoto 1995 JPN 23 01:06:53 00:11:39 00:00:00 00:35:54 00:00:00 00:19:20
26 Ayami Taketomo 1985 JPN 4 01:06:55 00:10:47 00:00:00 00:36:47 00:00:00 00:19:21
27 Izumi Ikeguchi 2000 JPN 42 01:06:58 00:10:58 00:00:00 00:35:52 00:00:00 00:20:08
28 Mayu Tanaka 1997 JPN 12 01:07:26 00:10:46 00:00:00 00:36:05 00:00:00 00:20:35
29 Himari Shimizu 2003 JPN 34 01:08:06 00:10:56 00:00:00 00:35:54 00:00:00 00:21:16
30 Otono Maeda 1997 JPN 31 01:08:30 00:11:34 00:00:00 00:36:51 00:00:00 00:20:05
31 Cassia Boglio 2000 AUS 35 01:08:38 00:11:04 00:00:00 00:36:28 00:00:00 00:21:06
32 Lara Gruden 1990 USA 36 01:08:51 00:11:41 00:00:00 00:36:47 00:00:00 00:20:23
33 Misaki Tanaka 1998 JPN 39 01:09:16 00:11:41 00:00:00 00:37:09 00:00:00 00:20:26
34 Rachel Pearson 1987 USA 22 01:09:32 00:10:57 00:00:00 00:37:31 00:00:00 00:21:04
35 Ami Asada 1999 JPN 32 01:09:46 00:10:52 00:00:00 00:36:41 00:00:00 00:22:13
36 Natasha Bowyer 1994 NZL 26 01:10:04 00:10:25 00:00:00 00:39:00 00:00:00 00:20:39
37 Leanna Lee 1985 CAN 37 01:10:55 00:11:44 00:00:00 00:37:06 00:00:00 00:22:05
38 Mio Nagashima 2000 JPN 38 01:12:07 00:11:04 00:00:00 00:38:17 00:00:00 00:22:46
39 Pei-Yu Chen 2002 TPE 46 01:13:24 00:11:38 00:00:00 00:37:12 00:00:00 00:24:34
40 En Hui Chen 2000 TPE 45 01:16:50 00:12:25 00:00:00 00:40:00 00:00:00 00:24:25
41 Yu-Ting Pan 2003 TPE 41 01:19:10 00:12:25 00:00:00 00:39:59 00:00:00 00:26:46
LAP Natasha Poole 1989 NZL 43 LAP 00:12:24 00:00:00 00:00:00 00:00:00 00:00:00
DNF Fuka Sega 1998 JPN 14 DNF 00:10:07 00:00:00 00:35:53 00:00:00 00:00:00
DNF Erika Tanno 1989 JPN 18 DNF 00:11:09 00:00:00 00:36:25 00:00:00 00:00:00
Program notes:

Technical delegate: Andrew Tai/TPE. Head referee: Tatsuya Nakasone . Competition jury: Andrew Tai/TPE, Shin Otsuka/JPN, Akira Umekagi/JPN.
Distances; Swim 750 m (1 lap); bike 20 km (5 laps), Run 4.984 km (2 laps)
Water temperature 26.0°. Air temperature 24.2°. WBGT 22.5°. Humedity 71%. Wetsuits not allowed.